Time;durP1;ratioP1;P1;durP2;ratioP2;P2;SDS_P1;SDS_P2;PMS_P1;PMS_P2;Temp;Humidity;BMP_temperature;BMP_pressure;BME280_temperature;BME280_humidity;BME280_pressure;Samples;Min_cycle;Max_cycle;Signal;HPM_P1;HPM_P2
2022/05/24 00:01:16;;;;;;;3.10;2.33;;;;;;;16.98;90.11;97145.47;4187788;28;20416;-71
2022/05/24 00:03:18;;;;;;;2.83;2.42;;;;;;;17.01;89.24;97144.56;4187071;28;20064;-71
2022/05/24 00:05:19;;;;;;;3.88;2.85;;;;;;;17.01;89.76;97150.16;4187595;28;20059;-72
2022/05/24 00:07:19;;;;;;;2.95;2.42;;;;;;;16.99;88.42;97140.66;4188310;28;20595;-71
2022/05/24 00:09:19;;;;;;;5.78;2.22;;;;;;;17.03;89.39;97149.69;4186703;28;20124;-71
2022/05/24 00:11:20;;;;;;;2.53;2.17;;;;;;;16.94;90.38;97152.41;4187595;28;20047;-71
2022/05/24 00:13:21;;;;;;;4.03;2.33;;;;;;;16.93;89.97;97176.00;4187622;28;20549;-71
2022/05/24 00:15:23;;;;;;;3.33;2.55;;;;;;;16.90;90.43;97171.31;4186712;28;20114;-71
2022/05/24 00:17:23;;;;;;;3.33;2.40;;;;;;;16.87;90.51;97173.00;4197409;28;20040;-71
2022/05/24 00:19:24;;;;;;;3.65;2.13;;;;;;;16.86;90.45;97185.41;4191870;27;20088;-72
2022/05/24 00:21:24;;;;;;;2.40;1.77;;;;;;;16.86;89.97;97171.44;4192579;27;20083;-72
2022/05/24 00:23:27;;;;;;;5.50;2.28;;;;;;;16.89;89.85;97173.34;4188202;28;20036;-71
2022/05/24 00:25:28;;;;;;;;;;;;;;;16.94;87.83;97175.53;4188128;28;20685;-72
2022/05/24 00:27:29;;;;;;;2.92;2.10;;;;;;;16.91;89.47;97184.06;4187188;28;19963;-72
2022/05/24 00:29:29;;;;;;;4.15;2.17;;;;;;;16.88;90.07;97184.94;4190879;28;20040;-71
2022/05/24 00:31:29;;;;;;;3.65;2.15;;;;;;;16.85;90.43;97187.41;4191718;27;20417;-71
2022/05/24 00:33:31;;;;;;;3.80;2.10;;;;;;;16.82;90.72;97179.94;4187140;28;20037;-71
2022/05/24 00:35:33;;;;;;;3.80;2.30;;;;;;;16.78;91.30;97184.84;4187353;28;20459;-72
2022/05/24 00:37:36;;;;;;;2.45;2.22;;;;;;;16.73;91.54;97185.44;4194654;28;20059;-71
2022/05/24 00:39:37;;;;;;;3.78;2.40;;;;;;;16.70;91.51;97174.38;4200827;27;20394;-71
2022/05/24 00:41:43;;;;;;;3.13;2.63;;;;;;;16.68;90.92;97177.59;4190042;28;20040;-71
2022/05/24 00:43:49;;;;;;;5.10;3.08;;;;;;;16.64;91.36;97178.97;4185745;28;20037;-71
2022/05/24 00:45:53;;;;;;;4.78;2.80;;;;;;;16.63;90.84;97185.75;4186941;28;20094;-71
2022/05/24 00:48:04;;;;;;;3.00;2.55;;;;;;;16.70;90.34;97185.53;4186338;28;20470;-72
2022/05/24 00:50:14;;;;;;;4.25;2.80;;;;;;;16.66;89.85;97179.28;4185786;28;20045;-72
2022/05/24 00:52:25;;;;;;;3.58;2.63;;;;;;;16.68;89.88;97194.34;4186259;28;20116;-72
2022/05/24 00:54:25;;;;;;;2.85;2.50;;;;;;;16.69;89.75;97187.56;4186744;28;20040;-72
2022/05/24 00:56:56;;;;;;;2.75;2.35;;;;;;;16.67;89.92;97189.22;4190060;27;20500;-71
2022/05/24 00:59:04;;;;;;;4.50;2.47;;;;;;;16.63;90.05;97185.75;4185757;28;20044;-71
2022/05/24 01:01:37;;;;;;;4.75;3.42;;;;;;;16.59;90.05;97194.25;4195617;27;20049;-71
2022/05/24 01:03:38;;;;;;;3.38;2.70;;;;;;;16.57;91.26;97200.28;4186821;28;20047;-71
2022/05/24 01:05:38;;;;;;;3.10;2.80;;;;;;;16.56;91.11;97198.75;4193570;28;20076;-71
2022/05/24 01:07:38;;;;;;;4.13;2.90;;;;;;;16.56;91.39;97204.31;4201145;27;20044;-71
2022/05/24 01:09:54;;;;;;;3.60;2.95;;;;;;;16.53;92.06;97210.78;4200012;28;20181;-71
2022/05/24 01:12:07;;;;;;;3.13;2.60;;;;;;;16.60;92.21;97220.16;4201396;28;20538;-71
2022/05/24 01:14:09;;;;;;;3.72;2.90;;;;;;;16.35;93.84;97216.16;4200441;27;20624;-72
2022/05/24 01:16:11;;;;;;;3.03;2.58;;;;;;;16.34;94.21;97220.19;4186336;28;20037;-71
2022/05/24 01:18:13;;;;;;;4.72;2.85;;;;;;;16.31;94.00;97234.25;4185950;28;20140;-71
2022/05/24 01:20:13;;;;;;;3.67;3.30;;;;;;;16.17;92.06;97221.53;4186159;28;20233;-72
2022/05/24 01:22:21;;;;;;;5.07;3.67;;;;;;;16.12;92.90;97227.66;4186490;28;20531;-72
2022/05/24 01:24:30;;;;;;;4.43;3.85;;;;;;;16.11;92.83;97232.44;4196242;28;20048;-71
2022/05/24 01:26:46;;;;;;;6.35;5.75;;;;;;;16.07;92.16;97234.56;4196512;27;20051;-71
2022/05/24 01:28:58;;;;;;;6.28;5.13;;;;;;;16.07;90.30;97236.59;4187470;28;20127;-71
2022/05/24 01:31:00;;;;;;;5.75;4.93;;;;;;;15.96;90.36;97231.31;4198967;27;20044;-71
2022/05/24 01:37:40;;;;;;;7.40;5.75;;;;;;;15.73;90.22;97241.53;4186321;28;20162;-71
2022/05/24 01:39:43;;;;;;;8.00;5.22;;;;;;;15.69;90.69;97251.22;4186393;28;20464;-71
2022/05/24 01:41:48;;;;;;;6.95;6.25;;;;;;;15.62;90.54;97248.63;4197555;28;20101;-71
2022/05/24 01:43:50;;;;;;;11.60;6.25;;;;;;;15.58;90.56;97256.28;4202615;27;20316;-71
2022/05/24 01:45:59;;;;;;;7.30;5.15;;;;;;;15.41;90.78;97261.91;4187419;28;20113;-71
2022/05/24 01:48:03;;;;;;;6.65;5.47;;;;;;;15.41;91.25;97259.13;4186218;28;20040;-71
2022/05/24 01:50:08;;;;;;;6.45;5.20;;;;;;;15.31;91.34;97260.22;4200149;27;20138;-72
2022/05/24 01:52:16;;;;;;;6.00;5.38;;;;;;;15.28;91.66;97260.28;4202005;27;20032;-72
2022/05/24 01:54:17;;;;;;;6.40;5.60;;;;;;;15.26;91.35;97276.66;4192238;28;20039;-71
2022/05/24 01:56:24;;;;;;;6.70;6.03;;;;;;;15.22;91.54;97267.59;4197656;27;20032;-71
2022/05/24 01:58:27;;;;;;;7.65;6.82;;;;;;;15.20;91.90;97278.41;4198352;28;20048;-71
2022/05/24 02:00:27;;;;;;;8.63;7.38;;;;;;;15.18;91.79;97267.72;4189270;28;20040;-71
2022/05/24 02:02:28;;;;;;;11.30;8.30;;;;;;;15.12;92.31;97269.44;4186749;28;20455;-71
2022/05/24 02:04:32;;;;;;;10.23;9.20;;;;;;;15.00;92.61;97273.75;4188515;28;20040;-71
2022/05/24 02:06:33;;;;;;;10.30;9.13;;;;;;;14.99;92.61;97274.19;4186284;28;20036;-71
2022/05/24 02:08:33;;;;;;;12.38;9.57;;;;;;;14.94;93.09;97280.28;4188607;28;20387;-71
2022/05/24 02:10:46;;;;;;;11.63;9.80;;;;;;;14.92;93.30;97285.50;4200509;27;20040;-71
2022/05/24 02:12:53;;;;;;;11.50;9.73;;;;;;;14.88;93.45;97282.78;4186248;28;20123;-71
2022/05/24 02:14:58;;;;;;;10.88;9.60;;;;;;;14.84;93.70;97287.69;4194488;27;20381;-71
2022/05/24 02:17:07;;;;;;;11.10;9.80;;;;;;;14.87;93.83;97290.34;4187307;28;20052;-71
2022/05/24 02:19:08;;;;;;;12.65;10.68;;;;;;;14.89;93.79;97293.50;4190034;28;20053;-71
2022/05/24 02:21:09;;;;;;;12.48;10.70;;;;;;;14.91;94.35;97303.44;4204969;27;20052;-71
2022/05/24 02:23:17;;;;;;;13.98;10.63;;;;;;;14.88;94.81;97299.50;4204642;27;20123;-71
2022/05/24 02:25:23;;;;;;;12.57;10.43;;;;;;;14.91;94.25;97298.63;4189475;28;20033;-71
2022/05/24 02:27:24;;;;;;;11.57;10.32;;;;;;;14.95;93.53;97302.09;4189099;28;20083;-71
2022/05/24 02:29:24;;;;;;;13.48;10.68;;;;;;;14.96;93.77;97302.88;4188277;28;20090;-71
2022/05/24 02:31:26;;;;;;;14.05;11.65;;;;;;;14.97;93.74;97313.59;4189427;28;20456;-71
2022/05/24 02:33:27;;;;;;;11.53;10.30;;;;;;;15.01;93.63;97305.94;4198459;28;20044;-71
2022/05/24 02:35:27;;;;;;;11.93;10.23;;;;;;;14.98;92.94;97298.47;4188858;28;20470;-71
2022/05/24 02:37:28;;;;;;;9.80;8.80;;;;;;;14.98;92.69;97309.59;4189050;28;20044;-71
2022/05/24 02:39:28;;;;;;;10.13;7.93;;;;;;;15.02;91.71;97304.72;4190924;28;20075;-71
2022/05/24 02:41:28;;;;;;;9.00;7.78;;;;;;;14.99;91.53;97310.41;4204021;27;20036;-71
2022/05/24 02:43:29;;;;;;;8.55;7.10;;;;;;;14.96;90.74;97303.66;4192777;28;20185;-71
2022/05/24 02:45:29;;;;;;;8.77;7.63;;;;;;;14.96;90.04;97306.44;4189135;28;20040;-71
2022/05/24 02:47:30;;;;;;;8.30;6.90;;;;;;;14.93;90.36;97306.56;4188499;28;20037;-71
2022/05/24 02:49:30;;;;;;;8.60;7.65;;;;;;;14.89;90.26;97295.50;4188081;28;20041;-71
2022/05/24 02:51:31;;;;;;;9.60;8.20;;;;;;;14.84;90.64;97296.81;4188855;28;20385;-71
2022/05/24 02:53:31;;;;;;;9.25;7.68;;;;;;;14.76;91.00;97294.63;4188837;28;20040;-71
2022/05/24 02:55:32;;;;;;;8.30;7.30;;;;;;;14.70;91.40;97299.94;4188860;28;20101;-71
2022/05/24 02:57:32;;;;;;;8.60;7.50;;;;;;;14.60;92.73;97287.84;4188498;28;20043;-71
2022/05/24 02:59:33;;;;;;;9.80;7.90;;;;;;;14.49;93.67;97292.88;4188277;28;20123;-71
2022/05/24 03:01:33;;;;;;;9.35;7.75;;;;;;;14.40;94.03;97289.88;4192152;28;20044;-71
2022/05/24 03:03:33;;;;;;;8.13;6.85;;;;;;;14.39;94.35;97301.41;4188507;28;20128;-71
2022/05/24 03:05:34;;;;;;;8.85;7.95;;;;;;;14.34;94.54;97302.72;4197106;28;20594;-71
2022/05/24 03:09:53;;;;;;;10.20;7.30;;;;;;;14.29;94.90;97309.56;4187668;28;20052;-71
2022/05/24 03:14:15;;;;;;;11.90;7.35;;;;;;;14.30;93.73;97313.91;4187804;28;20586;-71
2022/05/24 03:16:16;;;;;;;8.73;7.03;;;;;;;14.30;93.13;97316.69;4188275;28;20103;-71
2022/05/24 03:18:18;;;;;;;10.57;7.63;;;;;;;14.29;93.36;97320.69;4188361;28;20032;-71
2022/05/24 03:20:20;;;;;;;8.93;7.85;;;;;;;14.36;92.53;97325.31;4187561;28;20391;-71
2022/05/24 03:22:20;;;;;;;9.38;7.72;;;;;;;14.34;92.80;97327.75;4194691;28;20136;-71
2022/05/24 03:24:20;;;;;;;8.63;7.13;;;;;;;14.39;92.23;97320.88;4193818;28;20430;-71
2022/05/24 03:26:21;;;;;;;11.48;8.10;;;;;;;14.34;93.52;97316.63;4189121;28;20064;-71
2022/05/24 03:28:21;;;;;;;8.73;7.82;;;;;;;14.32;93.42;97314.28;4197923;27;20123;-71
2022/05/24 03:30:21;;;;;;;8.95;7.88;;;;;;;14.32;92.88;97310.72;4195761;28;20426;-71
2022/05/24 03:32:22;;;;;;;7.88;7.07;;;;;;;14.31;92.60;97321.06;4188208;28;20127;-71
2022/05/24 03:34:22;;;;;;;9.20;7.07;;;;;;;14.34;92.43;97333.31;4188022;28;20049;-71
2022/05/24 03:36:22;;;;;;;7.30;6.22;;;;;;;14.39;91.85;97343.16;4187250;28;20048;-71
2022/05/24 03:38:23;;;;;;;6.82;5.53;;;;;;;14.38;91.89;97345.16;4189905;27;20147;-71
2022/05/24 03:40:23;;;;;;;7.68;5.78;;;;;;;14.34;92.00;97338.88;4187996;28;20041;-71
2022/05/24 03:42:24;;;;;;;7.00;5.10;;;;;;;14.35;91.62;97343.25;4187781;28;20044;-71
2022/05/24 03:44:25;;;;;;;5.82;5.10;;;;;;;14.29;91.26;97342.16;4188457;28;20412;-71
2022/05/24 03:46:25;;;;;;;5.80;4.90;;;;;;;14.27;90.50;97345.38;4196643;27;20046;-71
2022/05/24 03:48:26;;;;;;;5.43;4.65;;;;;;;14.24;90.70;97337.13;4202037;27;20557;-71
2022/05/24 03:50:26;;;;;;;5.55;4.45;;;;;;;14.28;89.95;97344.16;4202098;27;20072;-71
2022/05/24 03:52:27;;;;;;;5.65;4.75;;;;;;;14.32;89.87;97338.53;4203624;27;20363;-72
2022/05/24 03:54:27;;;;;;;5.85;4.75;;;;;;;14.36;89.56;97324.53;4202462;27;20430;-71
2022/05/24 03:56:27;;;;;;;5.78;5.07;;;;;;;14.43;88.87;97336.31;4198163;28;20066;-71
2022/05/24 03:58:28;;;;;;;5.60;4.80;;;;;;;14.43;88.34;97327.97;4187067;28;20051;-71
2022/05/24 04:00:37;;;;;;;6.90;5.03;;;;;;;14.46;87.94;97321.53;4186954;28;20064;-71
2022/05/24 04:02:37;;;;;;;6.10;5.30;;;;;;;14.48;87.47;97329.47;4187022;28;20049;-71
2022/05/24 04:04:37;;;;;;;5.82;5.13;;;;;;;14.46;87.20;97332.69;4187513;28;20476;-71
2022/05/24 04:06:38;;;;;;;6.47;5.38;;;;;;;14.43;87.21;97324.41;4187887;27;20151;-71
2022/05/24 04:08:38;;;;;;;7.53;5.72;;;;;;;14.42;86.83;97331.97;4187179;28;20074;-71
2022/05/24 04:10:39;;;;;;;7.40;5.30;;;;;;;14.40;86.81;97334.41;4187121;28;20396;-71
2022/05/24 04:12:40;;;;;;;7.82;5.35;;;;;;;14.31;87.13;97328.59;4201279;27;20633;-71
2022/05/24 04:14:41;;;;;;;6.35;5.45;;;;;;;14.29;87.11;97329.03;4201735;27;20044;-71
2022/05/24 04:16:41;;;;;;;5.95;5.35;;;;;;;14.27;87.08;97327.91;4202647;27;20040;-71
2022/05/24 04:18:41;;;;;;;6.88;5.30;;;;;;;14.25;87.16;97327.56;4197555;28;20289;-71
2022/05/24 04:20:42;;;;;;;7.05;5.15;;;;;;;14.27;86.61;97341.81;4186916;28;20032;-71
2022/05/24 04:22:43;;;;;;;7.30;5.30;;;;;;;14.29;87.01;97342.94;4187874;28;20464;-72
2022/05/24 04:24:44;;;;;;;7.00;5.53;;;;;;;14.31;86.59;97340.56;4186882;28;20078;-71
2022/05/24 04:26:44;;;;;;;8.48;6.18;;;;;;;14.38;86.15;97341.59;4187352;28;20279;-71
2022/05/24 04:28:45;;;;;;;6.80;5.95;;;;;;;14.38;86.05;97336.81;4186509;28;20075;-71
2022/05/24 04:30:49;;;;;;;8.57;6.38;;;;;;;14.42;86.24;97345.88;4187240;28;20480;-71
2022/05/24 04:32:50;;;;;;;7.80;6.40;;;;;;;14.46;85.15;97343.81;4186950;28;20135;-71
2022/05/24 04:34:50;;;;;;;8.70;6.40;;;;;;;14.49;85.04;97356.09;4192451;28;20166;-71
2022/05/24 04:36:50;;;;;;;11.95;7.30;;;;;;;14.50;84.48;97350.09;4201957;27;20090;-71
2022/05/24 04:38:51;;;;;;;7.78;6.95;;;;;;;14.50;84.67;97354.88;4202318;27;20055;-71
2022/05/24 04:43:10;;;;;;;7.70;6.53;;;;;;;14.53;85.05;97365.13;4190798;28;20110;-71
2022/05/24 04:45:13;;;;;;;7.72;6.93;;;;;;;14.61;84.82;97380.47;4191557;28;20044;-71
2022/05/24 04:47:14;;;;;;;8.98;6.90;;;;;;;14.69;84.66;97383.88;4190982;27;20339;-71
2022/05/24 04:49:15;;;;;;;11.05;7.32;;;;;;;14.73;84.45;97402.09;4192556;27;20123;-71
2022/05/24 04:51:15;;;;;;;12.80;7.45;;;;;;;14.83;83.86;97395.50;4186773;28;20448;-71
2022/05/24 04:53:15;;;;;;;9.52;6.90;;;;;;;14.85;83.65;97395.84;4187051;28;20033;-71
2022/05/24 04:55:16;;;;;;;10.00;7.35;;;;;;;14.87;83.48;97398.19;4194619;28;20036;-71
2022/05/24 04:57:17;;;;;;;8.32;6.55;;;;;;;14.86;83.81;97402.97;4202257;27;20042;-71
2022/05/24 04:59:17;;;;;;;9.05;6.38;;;;;;;14.89;83.43;97396.56;4185950;28;20048;-71
2022/05/24 05:01:17;;;;;;;9.93;6.82;;;;;;;14.90;83.32;97391.75;4189419;28;20044;-71
2022/05/24 05:03:20;;;;;;;7.70;6.30;;;;;;;14.92;82.14;97410.81;4189604;27;20038;-71
2022/05/24 05:05:20;;;;;;;8.98;6.07;;;;;;;14.89;82.09;97401.31;4187317;27;20057;-71
2022/05/24 05:07:21;;;;;;;7.75;5.95;;;;;;;14.90;82.16;97397.34;4186145;28;20330;-71
2022/05/24 05:09:21;;;;;;;6.25;5.55;;;;;;;14.87;82.94;97398.97;4130082;28;20040;-71
2022/05/24 05:11:22;;;;;;;7.38;6.13;;;;;;;14.86;82.69;97400.19;4186853;28;20044;-71
2022/05/24 05:13:22;;;;;;;8.27;6.90;;;;;;;14.89;82.81;97404.09;4184082;28;20033;-71
2022/05/24 05:15:22;;;;;;;7.38;6.43;;;;;;;14.87;82.52;97401.75;4193693;28;20458;-71
2022/05/24 05:17:23;;;;;;;7.30;5.78;;;;;;;14.85;81.54;97392.25;4187510;28;20041;-71
2022/05/24 05:19:23;;;;;;;6.57;5.47;;;;;;;14.83;81.95;97397.50;4186897;27;20036;-71
2022/05/24 05:21:28;;;;;;;6.50;5.40;;;;;;;14.78;82.48;97400.78;4186631;28;20102;-71
2022/05/24 05:23:29;;;;;;;10.43;5.53;;;;;;;14.74;82.56;97397.31;4184470;28;20543;-71
2022/05/24 05:25:29;;;;;;;7.57;5.60;;;;;;;14.75;81.45;97405.22;4186966;28;20492;-71
2022/05/24 05:27:29;;;;;;;6.15;5.38;;;;;;;14.68;81.63;97396.25;4187489;28;20660;-71
2022/05/24 05:31:50;;;;;;;7.90;5.75;;;;;;;14.73;82.19;97398.50;4186308;28;20047;-71
2022/05/24 05:33:51;;;;;;;6.97;6.07;;;;;;;14.81;81.79;97391.56;4185345;28;20207;-71
2022/05/24 05:35:51;;;;;;;7.88;6.50;;;;;;;14.88;82.69;97388.59;4186833;28;20048;-71
2022/05/24 05:37:52;;;;;;;7.13;5.60;;;;;;;14.97;82.58;97388.00;4189373;28;20105;-71
2022/05/24 05:39:52;;;;;;;7.07;5.03;;;;;;;15.04;81.56;97385.06;4189616;28;20052;-71
2022/05/24 05:41:53;;;;;;;6.25;4.70;;;;;;;15.16;80.86;97395.53;4189190;28;20064;-71
2022/05/24 05:43:54;;;;;;;6.82;5.15;;;;;;;15.22;80.30;97390.97;4190329;28;20045;-71
2022/05/24 05:45:56;;;;;;;7.93;5.47;;;;;;;15.29;81.04;97395.59;4190172;27;20056;-71
2022/05/24 05:47:57;;;;;;;5.90;5.05;;;;;;;15.38;80.67;97399.34;4186105;28;20465;-71
2022/05/24 05:49:57;;;;;;;8.02;5.15;;;;;;;15.46;80.19;97406.31;4186487;28;20032;-72
2022/05/24 05:51:58;;;;;;;6.45;5.20;;;;;;;15.50;79.30;97417.38;4197253;28;20040;-73
2022/05/24 05:53:58;;;;;;;5.40;4.65;;;;;;;15.54;79.70;97417.28;4192882;27;20418;-72
2022/05/24 05:55:59;;;;;;;6.10;4.90;;;;;;;15.57;79.31;97420.00;4194311;28;20059;-72
2022/05/24 05:57:59;;;;;;;6.38;5.10;;;;;;;15.59;78.95;97427.91;4189652;27;20128;-71
2022/05/24 05:59:59;;;;;;;5.95;4.40;;;;;;;15.62;79.44;97432.63;4188993;28;20109;-72
2022/05/24 06:02:01;;;;;;;8.73;5.10;;;;;;;15.62;79.45;97435.44;4197873;28;20052;-71
2022/05/24 06:04:02;;;;;;;6.85;4.60;;;;;;;15.62;79.48;97427.06;4191205;28;20048;-71
2022/05/24 06:06:03;;;;;;;5.97;4.45;;;;;;;15.67;79.45;97432.13;4190723;28;20037;-72
2022/05/24 06:08:03;;;;;;;5.72;4.53;;;;;;;15.70;79.40;97434.81;4189085;28;20043;-71
2022/05/24 06:10:07;;;;;;;6.32;5.28;;;;;;;15.80;79.58;97426.59;4188676;28;20103;-72
2022/05/24 06:12:08;;;;;;;7.50;5.32;;;;;;;15.90;79.18;97433.94;4201788;28;20043;-71
2022/05/24 06:14:09;;;;;;;5.85;5.25;;;;;;;15.90;77.20;97434.72;4187331;28;20032;-71
2022/05/24 06:16:10;;;;;;;9.98;5.60;;;;;;;15.96;78.33;97432.94;4189368;28;20033;-71
2022/05/24 06:18:10;;;;;;;6.00;5.40;;;;;;;15.99;78.17;97446.00;4188989;28;20514;-71
2022/05/24 06:20:11;;;;;;;6.82;5.28;;;;;;;16.00;78.18;97452.38;4188702;28;20078;-71
2022/05/24 06:22:11;;;;;;;7.18;5.65;;;;;;;15.92;77.96;97443.41;4196995;27;20368;-71
2022/05/24 06:24:14;;;;;;;6.53;5.57;;;;;;;15.97;78.76;97456.84;4203514;27;20035;-71
2022/05/24 06:26:17;;;;;;;7.28;5.30;;;;;;;15.87;78.44;97462.69;4203722;27;20056;-71
2022/05/24 06:28:17;;;;;;;7.38;5.53;;;;;;;15.89;79.51;97463.03;4194870;28;20063;-71
2022/05/24 06:30:20;;;;;;;5.95;5.28;;;;;;;15.85;79.39;97462.34;4192624;28;20032;-71
2022/05/24 06:32:20;;;;;;;5.95;5.20;;;;;;;15.80;79.62;97460.06;4195156;28;20036;-71
2022/05/24 06:34:20;;;;;;;6.45;5.72;;;;;;;15.76;81.23;97462.19;4188980;28;20040;-71
2022/05/24 06:36:21;;;;;;;7.10;5.68;;;;;;;15.75;81.87;97472.53;4188306;28;20098;-72
2022/05/24 06:38:21;;;;;;;6.32;4.70;;;;;;;15.80;81.81;97480.38;4188156;28;20044;-72
2022/05/24 06:40:21;;;;;;;6.13;4.60;;;;;;;15.87;81.84;97459.88;4188614;28;20106;-72
2022/05/24 06:42:22;;;;;;;6.22;5.32;;;;;;;15.99;81.71;97453.59;4191444;28;20040;-72
2022/05/24 06:44:22;;;;;;;6.03;5.22;;;;;;;16.11;80.75;97464.03;4189181;28;20219;-72
2022/05/24 06:46:23;;;;;;;6.55;5.07;;;;;;;16.20;79.51;97463.41;4188312;28;20161;-71
2022/05/24 06:48:23;;;;;;;5.53;4.55;;;;;;;16.26;79.19;97465.22;4201893;27;20113;-71
2022/05/24 06:50:24;;;;;;;6.35;4.32;;;;;;;16.31;80.23;97465.91;4201824;27;20351;-72
2022/05/24 06:52:24;;;;;;;5.22;4.65;;;;;;;16.35;79.74;97463.78;4202706;27;20058;-73
2022/05/24 06:54:25;;;;;;;5.15;4.55;;;;;;;16.38;79.24;97458.09;4202406;27;20381;-72
2022/05/24 06:56:25;;;;;;;6.07;4.78;;;;;;;16.48;80.09;97464.63;4187285;28;20037;-72
2022/05/24 06:58:26;;;;;;;5.15;4.22;;;;;;;16.53;79.88;97455.69;4186545;28;20111;-72
2022/05/24 07:02:46;;;;;;;6.20;4.68;;;;;;;16.70;79.53;97448.84;4190104;28;20043;-71
2022/05/24 07:04:46;;;;;;;5.38;3.92;;;;;;;16.76;79.42;97449.88;4187578;28;20047;-71
2022/05/24 07:06:46;;;;;;;5.00;4.50;;;;;;;16.81;77.87;97454.91;4186974;28;20044;-72
2022/05/24 07:08:49;;;;;;;4.72;3.95;;;;;;;16.78;77.00;97455.78;4186636;28;20498;-71
2022/05/24 07:10:49;;;;;;;4.90;3.97;;;;;;;16.83;77.15;97460.06;4202542;27;20499;-72
2022/05/24 07:13:02;;;;;;;6.10;4.35;;;;;;;16.84;76.58;97448.44;4201545;27;20203;-72
2022/05/24 07:15:02;;;;;;;3.55;3.17;;;;;;;16.92;77.62;97451.00;4203769;27;20051;-72
2022/05/24 07:17:03;;;;;;;3.13;2.83;;;;;;;17.00;78.18;97446.78;4202287;27;20059;-72
2022/05/24 07:19:03;;;;;;;2.90;2.40;;;;;;;17.10;76.75;97446.44;4200831;27;20097;-72
2022/05/24 07:21:05;;;;;;;3.13;2.83;;;;;;;17.13;74.93;97444.78;4194983;27;20066;-72
2022/05/24 07:23:09;;;;;;;3.47;2.90;;;;;;;17.25;75.34;97446.78;4187745;28;20461;-72
2022/05/24 07:25:10;;;;;;;6.75;2.60;;;;;;;17.36;74.51;97438.81;4187349;28;20050;-72
2022/05/24 07:27:11;;;;;;;3.05;2.20;;;;;;;17.49;75.05;97438.03;4188537;28;20493;-72
2022/05/24 07:29:12;;;;;;;2.58;2.28;;;;;;;17.54;73.92;97437.47;4190161;28;20053;-72
2022/05/24 07:31:13;;;;;;;2.25;2.05;;;;;;;17.61;73.79;97448.41;4191804;28;20043;-72
2022/05/24 07:33:16;;;;;;;2.40;1.98;;;;;;;17.68;72.31;97431.41;4186433;28;20404;-72
2022/05/24 07:35:16;;;;;;;3.15;1.90;;;;;;;17.67;72.06;97435.44;4187857;28;20310;-72
2022/05/24 07:37:17;;;;;;;3.90;1.85;;;;;;;17.77;73.91;97445.50;4192746;28;20036;-72
2022/05/24 07:39:18;;;;;;;2.08;1.80;;;;;;;17.72;70.99;97434.13;4191817;27;20457;-72
2022/05/24 07:46:00;;;;;;;2.78;1.70;;;;;;;17.91;69.30;97435.88;4188242;27;20044;-72
2022/05/24 07:48:00;;;;;;;2.45;1.60;;;;;;;17.96;69.26;97433.28;4151410;28;1070881;-72
2022/05/24 07:50:01;;;;;;;10.35;2.13;;;;;;;17.88;69.20;97431.19;4200718;27;20064;-72
2022/05/24 07:52:02;;;;;;;2.58;2.00;;;;;;;17.79;70.53;97439.47;4202652;27;20063;-72
2022/05/24 07:54:02;;;;;;;3.22;2.03;;;;;;;17.70;70.42;97442.94;4199080;28;20029;-73
2022/05/24 07:56:03;;;;;;;2.50;1.70;;;;;;;17.63;68.80;97440.38;4202529;27;20036;-72
2022/05/24 07:58:03;;;;;;;2.63;2.20;;;;;;;17.55;69.35;97444.66;4202385;27;20315;-72
2022/05/24 08:00:06;;;;;;;3.25;2.05;;;;;;;17.50;69.66;97453.59;4194621;28;20460;-72
2022/05/24 08:02:06;;;;;;;6.97;2.30;;;;;;;17.45;70.53;97456.94;4187463;28;20075;-72
2022/05/24 08:04:07;;;;;;;3.33;2.17;;;;;;;17.43;69.76;97449.00;4187089;28;20042;-72
2022/05/24 08:06:07;;;;;;;4.88;2.20;;;;;;;17.48;69.59;97456.84;4187496;28;20422;-72
2022/05/24 08:08:09;;;;;;;3.70;1.98;;;;;;;17.62;71.52;97458.38;4192869;27;20040;-71
2022/05/24 08:10:09;;;;;;;2.13;1.92;;;;;;;17.80;69.78;97461.41;4186730;28;20028;-72
2022/05/24 08:12:09;;;;;;;2.60;2.25;;;;;;;18.03;69.63;97451.81;4187854;28;20047;-72
2022/05/24 08:14:10;;;;;;;2.50;1.90;;;;;;;18.08;67.49;97467.25;4188119;28;20028;-72
2022/05/24 08:16:10;;;;;;;2.95;2.20;;;;;;;18.01;65.65;97468.28;4194469;27;20078;-72
2022/05/24 08:18:10;;;;;;;3.85;2.33;;;;;;;18.04;66.38;97475.78;4193594;27;20028;-72
2022/05/24 08:20:11;;;;;;;3.83;2.10;;;;;;;17.99;66.32;97489.56;4187691;27;20528;-72
2022/05/24 08:22:12;;;;;;;2.90;2.00;;;;;;;17.88;65.52;97481.53;4186080;28;20460;-72
2022/05/24 08:24:12;;;;;;;2.85;2.30;;;;;;;17.85;67.50;97479.63;4187242;28;20525;-72
2022/05/24 08:26:13;;;;;;;5.72;2.47;;;;;;;17.86;68.46;97478.41;4185883;28;20095;-72
2022/05/24 08:28:14;;;;;;;2.53;2.03;;;;;;;17.84;68.58;97464.84;4186960;28;20310;-72
2022/05/24 08:30:16;;;;;;;3.05;2.30;;;;;;;17.95;68.40;97456.09;4186641;28;20360;-72
2022/05/24 08:32:16;;;;;;;3.25;2.33;;;;;;;18.17;67.63;97461.75;4189616;27;20028;-72
2022/05/24 08:34:17;;;;;;;4.13;2.03;;;;;;;18.30;69.17;97461.72;4193251;28;20059;-72
2022/05/24 08:36:17;;;;;;;3.53;2.30;;;;;;;18.45;69.90;97462.75;4189369;27;20119;-72
2022/05/24 08:38:18;;;;;;;1.95;1.80;;;;;;;18.39;70.92;97456.97;4199129;28;20031;-72
2022/05/24 08:40:20;;;;;;;2.78;2.17;;;;;;;18.57;68.12;97472.34;4188533;28;20180;-72
2022/05/24 08:43:02;;;;;;;2.42;1.77;;;;;;;18.91;68.31;97477.09;4199270;27;20062;-72
2022/05/24 08:49:55;;;;;;;2.33;1.63;;;;;;;19.07;64.58;97466.44;4186294;28;20090;-72
2022/05/24 08:52:00;;;;;;;2.45;1.52;;;;;;;19.12;63.53;97461.50;4186659;28;20247;-72
2022/05/24 08:54:10;;;;;;;2.28;1.90;;;;;;;19.13;62.02;97457.44;4195788;27;20048;-72
2022/05/24 08:56:17;;;;;;;1.83;1.63;;;;;;;19.18;64.19;97460.41;4201527;27;20343;-72
2022/05/24 08:58:29;;;;;;;2.35;1.33;;;;;;;19.18;63.20;97463.22;4201748;27;20033;-72
2022/05/24 09:00:40;;;;;;;1.77;1.67;;;;;;;19.16;63.46;97457.31;4201271;27;20328;-72
2022/05/24 09:02:45;;;;;;;2.00;1.42;;;;;;;19.14;62.29;97450.59;4196539;27;20044;-72
2022/05/24 09:04:45;;;;;;;1.95;1.48;;;;;;;19.06;63.65;97453.69;4199242;27;20040;-72
2022/05/24 09:06:53;;;;;;;1.52;1.42;;;;;;;19.13;64.62;97451.84;4202832;27;20483;-72
2022/05/24 09:09:06;;;;;;;1.63;1.52;;;;;;;19.15;64.99;97460.56;4187017;28;20322;-72
2022/05/24 09:11:30;;;;;;;1.85;1.70;;;;;;;19.19;65.27;97452.78;4190217;28;20055;-72
2022/05/24 09:13:33;;;;;;;4.25;1.70;;;;;;;19.26;63.98;97467.31;4190851;28;20048;-72
2022/05/24 09:16:02;;;;;;;2.38;1.70;;;;;;;19.21;64.02;97473.53;4186572;28;20170;-72
2022/05/24 09:18:23;;;;;;;3.25;1.60;;;;;;;19.10;64.90;97473.16;4186135;28;20039;-72
2022/05/24 09:20:24;;;;;;;5.15;1.73;;;;;;;18.91;66.10;97483.50;4186263;28;20090;-72
2022/05/24 09:22:31;;;;;;;1.95;1.70;;;;;;;18.58;66.37;97491.47;4186618;28;20040;-72
2022/05/24 09:24:56;;;;;;;1.98;1.77;;;;;;;18.15;70.15;97529.38;4186323;28;20044;-72
2022/05/24 09:27:20;;;;;;;5.15;1.60;;;;;;;17.17;78.24;97576.81;4192123;27;20056;-72
2022/05/24 09:29:20;;;;;;;6.00;1.70;;;;;;;16.33;83.56;97567.53;4185238;28;20048;-72
2022/05/24 09:31:39;;;;;;;2.38;1.30;;;;;;;15.55;88.02;97559.00;4188421;27;20048;-72
2022/05/24 09:33:41;;;;;;;2.53;1.30;;;;;;;15.15;92.34;97558.34;4190842;28;20036;-72
2022/05/24 09:35:42;;;;;;;1.98;1.40;;;;;;;15.03;93.40;97570.13;4202069;27;20193;-72
2022/05/24 09:38:04;;;;;;;3.05;1.50;;;;;;;15.15;93.35;97563.91;4190552;27;20095;-71
2022/05/24 09:40:18;;;;;;;2.55;1.50;;;;;;;15.30;90.07;97569.94;4188309;28;20048;-72
2022/05/24 09:42:33;;;;;;;6.00;1.60;;;;;;;15.49;93.52;97560.78;4185702;28;20553;-71
2022/05/24 09:44:46;;;;;;;5.05;1.60;;;;;;;15.55;93.64;97558.22;4184724;27;20044;-71
2022/05/24 09:46:47;;;;;;;2.13;1.60;;;;;;;15.59;94.92;97561.75;4187072;27;20227;-71
2022/05/24 09:49:00;;;;;;;2.47;1.30;;;;;;;15.40;91.35;97561.38;4184706;28;20060;-71
2022/05/24 09:51:03;;;;;;;7.25;1.35;;;;;;;15.66;92.94;97567.97;4188534;27;20048;-71
2022/05/24 09:53:14;;;;;;;2.88;1.25;;;;;;;15.64;87.33;97564.06;4188754;27;20495;-71
2022/05/24 09:55:22;;;;;;;2.38;1.20;;;;;;;15.87;89.67;97568.66;4185809;28;20396;-71
2022/05/24 09:57:29;;;;;;;1.50;0.98;;;;;;;16.13;88.41;97573.19;4185816;28;20202;-71
2022/05/24 09:59:29;;;;;;;1.50;0.88;;;;;;;16.34;84.67;97594.22;4184957;28;20045;-71
2022/05/24 10:01:35;;;;;;;0.90;0.80;;;;;;;16.50;83.06;97596.19;4185370;28;20056;-71
2022/05/24 10:03:42;;;;;;;2.13;0.80;;;;;;;16.55;81.33;97593.66;4192974;27;20060;-71